Time;durP1;ratioP1;P1;durP2;ratioP2;P2;SDS_P1;SDS_P2;PMS_P1;PMS_P2;Temp;Humidity;BMP_temperature;BMP_pressure;BME280_temperature;BME280_humidity;BME280_pressure;Samples;Min_cycle;Max_cycle;Signal;HPM_P1;HPM_P2
2023/01/23 00:00:24;;;;;;;;;;;3.50;88.70;;;;;;5094763;28;20371;-37
2023/01/23 00:02:50;;;;;;;;;;;3.50;88.70;;;;;;5094418;28;20376;-36
2023/01/23 00:05:15;;;;;;;;;;;3.40;88.70;;;;;;5094258;28;19916;-35
2023/01/23 00:07:41;;;;;;;;;;;3.40;88.70;;;;;;5094475;28;19966;-35
2023/01/23 00:10:07;;;;;;;;;;;3.40;88.70;;;;;;5094507;28;19912;-35
2023/01/23 00:12:32;;;;;;;;;;;3.40;88.90;;;;;;5094003;28;19919;-35
2023/01/23 00:14:58;;;;;;;;;;;3.40;88.90;;;;;;5093979;28;19920;-34
2023/01/23 00:17:25;;;;;;;;;;;3.30;89.20;;;;;;5094322;28;20057;-37
2023/01/23 00:19:52;;;;;;;;;;;3.40;89.10;;;;;;5094072;28;19961;-35
2023/01/23 00:22:17;;;;;;;;;;;3.40;89.10;;;;;;5094137;28;19919;-35
2023/01/23 00:24:43;;;;;;;;;;;3.40;89.10;;;;;;5093925;28;19912;-35
2023/01/23 00:27:08;;;;;;;;;;;3.40;89.10;;;;;;5093938;28;19911;-35
2023/01/23 00:29:34;;;;;;;;;;;3.40;89.10;;;;;;5094064;28;19951;-35
2023/01/23 00:31:59;;;;;;;;;;;3.30;89.10;;;;;;5093731;28;19912;-35
2023/01/23 00:34:25;;;;;;;;;;;3.40;89.30;;;;;;5093652;28;19969;-35
2023/01/23 00:36:50;;;;;;;;;;;3.30;89.30;;;;;;5093513;28;19916;-33
2023/01/23 00:39:20;;;;;;;;;;;3.30;89.30;;;;;;5093534;28;20294;-35
2023/01/23 00:41:46;;;;;;;;;;;3.30;89.40;;;;;;5093584;28;19919;-35
2023/01/23 00:44:12;;;;;;;;;;;3.30;89.50;;;;;;5093546;28;20018;-35
2023/01/23 00:46:37;;;;;;;;;;;3.30;89.50;;;;;;5093827;28;19913;-36
2023/01/23 00:49:03;;;;;;;;;;;3.20;89.50;;;;;;5093658;28;20246;-35
2023/01/23 00:51:29;;;;;;;;;;;3.30;89.70;;;;;;5093720;28;19916;-36
2023/01/23 00:53:54;;;;;;;;;;;3.20;89.70;;;;;;5093574;28;19912;-37
2023/01/23 00:56:19;;;;;;;;;;;3.20;89.60;;;;;;5093187;28;20007;-34
2023/01/23 00:58:45;;;;;;;;;;;3.30;89.70;;;;;;5093625;28;19912;-36
2023/01/23 01:01:11;;;;;;;;;;;3.30;89.70;;;;;;5093115;28;19919;-34
2023/01/23 01:03:36;;;;;;;;;;;3.30;89.70;;;;;;5093257;28;19916;-37
2023/01/23 01:06:02;;;;;;;;;;;3.30;89.70;;;;;;5093176;28;19912;-35
2023/01/23 01:08:28;;;;;;;;;;;3.30;89.70;;;;;;5092166;28;20369;-35
2023/01/23 01:10:53;;;;;;;;;;;3.30;89.70;;;;;;5093104;28;19912;-34
2023/01/23 01:13:20;;;;;;;;;;;3.30;89.80;;;;;;5091689;28;19912;-35
2023/01/23 01:15:47;;;;;;;;;;;3.30;89.90;;;;;;5092840;28;19924;-35
2023/01/23 01:18:13;;;;;;;;;;;3.30;89.80;;;;;;5092868;28;20034;-33
2023/01/23 01:20:39;;;;;;;;;;;3.30;89.80;;;;;;5093327;28;19939;-35
2023/01/23 01:23:05;;;;;;;;;;;3.40;89.80;;;;;;5092918;28;19912;-35
2023/01/23 01:25:30;;;;;;;;;;;3.40;89.70;;;;;;5092776;28;19918;-34
2023/01/23 01:27:56;;;;;;;;;;;3.40;89.80;;;;;;5092753;28;19923;-36
2023/01/23 01:30:21;;;;;;;;;;;3.50;89.80;;;;;;5092701;28;19940;-35
2023/01/23 01:32:47;;;;;;;;;;;3.50;89.70;;;;;;5093036;28;20336;-41
2023/01/23 01:35:12;;;;;;;;;;;3.50;89.70;;;;;;5092521;28;19944;-35
2023/01/23 01:37:39;;;;;;;;;;;3.50;89.70;;;;;;5092815;28;19967;-34
2023/01/23 01:40:06;;;;;;;;;;;3.50;89.70;;;;;;5092436;28;19919;-36
2023/01/23 01:42:37;;;;;;;;;;;3.40;89.80;;;;;;5092631;28;20037;-36
2023/01/23 01:45:03;;;;;;;;;;;3.40;89.80;;;;;;5092832;28;20419;-35
2023/01/23 01:47:28;;;;;;;;;;;3.40;89.90;;;;;;5092435;28;19963;-35
2023/01/23 01:49:56;;;;;;;;;;;3.50;89.90;;;;;;5092472;28;19919;-35
2023/01/23 01:52:22;;;;;;;;;;;3.40;89.90;;;;;;5092748;28;20367;-34
2023/01/23 01:55:00;;;;;;;;;;;3.50;89.90;;;;;;5092506;28;19919;-37
2023/01/23 01:57:28;;;;;;;;;;;3.50;90.00;;;;;;5092760;28;20431;-35
2023/01/23 01:59:57;;;;;;;;;;;3.50;89.90;;;;;;5091282;28;19916;-37
2023/01/23 02:02:27;;;;;;;;;;;3.50;89.90;;;;;;5092348;28;19968;-37
2023/01/23 02:04:59;;;;;;;;;;;3.60;90.00;;;;;;5092420;28;19941;-36
2023/01/23 02:07:29;;;;;;;;;;;3.60;89.90;;;;;;5092441;28;20378;-36
2023/01/23 02:09:55;;;;;;;;;;;3.70;89.90;;;;;;5092274;28;19912;-41
2023/01/23 02:12:20;;;;;;;;;;;3.70;89.80;;;;;;5092120;28;19919;-34
2023/01/23 02:14:46;;;;;;;;;;;3.70;89.70;;;;;;5092135;28;20284;-38
2023/01/23 02:17:11;;;;;;;;;;;3.70;89.70;;;;;;5091996;28;19922;-35
2023/01/23 02:19:43;;;;;;;;;;;3.70;89.70;;;;;;5096427;28;19919;-36
2023/01/23 02:22:22;;;;;;;;;;;3.80;89.80;;;;;;5099180;28;20006;-36
2023/01/23 02:24:56;;;;;;;;;;;3.80;89.80;;;;;;5099002;28;19912;-37
2023/01/23 02:27:21;;;;;;;;;;;3.80;89.70;;;;;;5098782;28;19919;-36
2023/01/23 02:29:47;;;;;;;;;;;3.90;89.80;;;;;;5098993;28;20344;-36
2023/01/23 02:32:13;;;;;;;;;;;3.90;89.70;;;;;;5099032;28;19916;-35
2023/01/23 02:34:39;;;;;;;;;;;4.00;89.80;;;;;;5098653;28;19919;-42
2023/01/23 02:37:05;;;;;;;;;;;4.00;89.70;;;;;;5098670;28;19931;-37
2023/01/23 02:39:31;;;;;;;;;;;4.00;89.60;;;;;;5098791;28;19973;-36
2023/01/23 02:41:57;;;;;;;;;;;4.00;89.60;;;;;;5098903;28;19912;-35
2023/01/23 02:44:27;;;;;;;;;;;4.00;89.50;;;;;;5098488;28;19919;-36
2023/01/23 02:46:53;;;;;;;;;;;4.00;89.50;;;;;;5098987;28;20320;-33
2023/01/23 02:49:20;;;;;;;;;;;4.00;89.60;;;;;;5099015;28;20267;-36
2023/01/23 02:51:46;;;;;;;;;;;4.10;89.70;;;;;;5098647;28;19923;-35
2023/01/23 02:54:12;;;;;;;;;;;4.10;89.50;;;;;;5098475;28;19912;-35
2023/01/23 02:56:37;;;;;;;;;;;4.10;89.60;;;;;;5098424;28;20355;-36
2023/01/23 03:01:47;;;;;;;;;;;4.10;89.60;;;;;;5098669;28;19919;-37
2023/01/23 03:04:12;;;;;;;;;;;4.20;89.50;;;;;;5098476;28;19912;-37
2023/01/23 03:06:38;;;;;;;;;;;4.20;89.30;;;;;;5098473;28;19978;-34
2023/01/23 03:09:06;;;;;;;;;;;4.20;89.30;;;;;;5098709;28;19981;-35
2023/01/23 03:11:32;;;;;;;;;;;4.10;89.30;;;;;;5098710;28;19919;-34
2023/01/23 03:13:58;;;;;;;;;;;4.10;89.30;;;;;;5097192;28;19912;-36
2023/01/23 03:16:23;;;;;;;;;;;4.00;89.30;;;;;;5098461;28;19916;-35
2023/01/23 03:18:49;;;;;;;;;;;4.00;89.40;;;;;;5098169;28;19957;-40
2023/01/23 03:21:15;;;;;;;;;;;4.00;89.30;;;;;;5098270;28;19913;-36
2023/01/23 03:23:43;;;;;;;;;;;3.90;89.40;;;;;;5098270;28;19912;-37
2023/01/23 03:26:09;;;;;;;;;;;3.90;89.50;;;;;;5098212;28;19959;-36
2023/01/23 03:31:18;;;;;;;;;;;3.90;89.50;;;;;;5095197;28;20007;-36
2023/01/23 03:33:44;;;;;;;;;;;3.90;89.60;;;;;;5094850;28;19947;-35
2023/01/23 03:36:10;;;;;;;;;;;3.90;89.60;;;;;;5094825;28;19915;-35
2023/01/23 03:38:36;;;;;;;;;;;3.90;89.50;;;;;;5094787;28;19967;-37
2023/01/23 03:43:46;;;;;;;;;;;3.90;89.60;;;;;;5094841;28;19966;-36
2023/01/23 03:46:11;;;;;;;;;;;4.00;89.60;;;;;;5094539;28;19912;-35
2023/01/23 03:48:38;;;;;;;;;;;4.00;89.50;;;;;;5094775;28;19908;-35
2023/01/23 03:51:04;;;;;;;;;;;3.90;89.40;;;;;;5094072;28;19939;-35
2023/01/23 03:53:29;;;;;;;;;;;3.90;89.50;;;;;;5094615;28;19939;-37
2023/01/23 03:55:55;;;;;;;;;;;3.90;89.40;;;;;;5094735;28;19918;-35
2023/01/23 03:58:20;;;;;;;;;;;3.90;89.50;;;;;;5094400;28;20252;-35
2023/01/23 04:00:46;;;;;;;;;;;3.80;89.50;;;;;;5094353;28;20430;-36
2023/01/23 04:03:11;;;;;;;;;;;3.80;89.50;;;;;;5094629;28;19908;-37
2023/01/23 04:05:37;;;;;;;;;;;3.80;89.60;;;;;;5094367;28;20255;-38
2023/01/23 04:08:02;;;;;;;;;;;3.90;89.70;;;;;;5094557;28;19915;-35
2023/01/23 04:10:28;;;;;;;;;;;3.90;89.70;;;;;;5094614;28;20488;-36
2023/01/23 04:12:53;;;;;;;;;;;3.90;89.70;;;;;;5094258;28;19999;-36
2023/01/23 04:15:19;;;;;;;;;;;3.90;89.60;;;;;;5093895;28;20022;-36
2023/01/23 04:17:45;;;;;;;;;;;4.00;89.60;;;;;;5094356;28;20002;-36
2023/01/23 04:20:11;;;;;;;;;;;3.90;89.50;;;;;;5094458;28;19916;-36
2023/01/23 04:22:36;;;;;;;;;;;3.90;89.50;;;;;;5093906;28;19967;-36
2023/01/23 04:25:02;;;;;;;;;;;3.90;89.50;;;;;;5093948;28;19912;-35
2023/01/23 04:27:27;;;;;;;;;;;3.90;89.60;;;;;;5093837;28;19975;-36
2023/01/23 04:29:53;;;;;;;;;;;3.90;89.70;;;;;;5093825;28;19912;-35
2023/01/23 04:32:18;;;;;;;;;;;3.90;89.70;;;;;;5093682;28;20363;-36
2023/01/23 04:34:44;;;;;;;;;;;3.90;89.60;;;;;;5093896;28;19912;-33
2023/01/23 04:37:09;;;;;;;;;;;3.90;89.70;;;;;;5093585;28;20310;-36
2023/01/23 04:39:36;;;;;;;;;;;3.90;89.60;;;;;;5093385;28;20007;-36
2023/01/23 04:42:01;;;;;;;;;;;3.90;89.70;;;;;;5092750;28;19912;-36
2023/01/23 04:44:27;;;;;;;;;;;3.90;89.50;;;;;;5093463;28;19919;-46
2023/01/23 04:46:53;;;;;;;;;;;3.90;89.50;;;;;;5093689;28;19984;-35
2023/01/23 04:49:19;;;;;;;;;;;3.90;89.50;;;;;;5093635;28;19965;-39
2023/01/23 04:51:46;;;;;;;;;;;3.80;89.50;;;;;;5093321;28;19912;-35
2023/01/23 04:54:12;;;;;;;;;;;3.80;89.50;;;;;;5093484;28;20344;-36
2023/01/23 04:56:38;;;;;;;;;;;3.80;89.60;;;;;;5093215;28;19922;-36
2023/01/23 04:59:03;;;;;;;;;;;3.80;89.70;;;;;;5093112;28;19938;-34
2023/01/23 05:01:28;;;;;;;;;;;3.80;89.70;;;;;;5093093;28;19991;-36
2023/01/23 05:03:54;;;;;;;;;;;3.80;89.70;;;;;;5093151;28;19919;-37
2023/01/23 05:06:19;;;;;;;;;;;3.90;89.80;;;;;;5093283;28;19912;-36
2023/01/23 05:08:45;;;;;;;;;;;3.90;89.80;;;;;;5093018;28;19963;-36
2023/01/23 05:11:11;;;;;;;;;;;3.90;89.70;;;;;;5092966;28;19978;-38
2023/01/23 05:13:36;;;;;;;;;;;3.90;89.70;;;;;;5092935;28;20378;-36
2023/01/23 05:16:02;;;;;;;;;;;3.90;89.70;;;;;;5092869;28;19927;-36
2023/01/23 05:18:27;;;;;;;;;;;3.90;90.10;;;;;;5092848;28;19915;-38
2023/01/23 05:20:53;;;;;;;;;;;3.90;89.70;;;;;;5092904;28;20003;-36
2023/01/23 05:23:18;;;;;;;;;;;3.90;89.60;;;;;;5092838;28;19919;-40
2023/01/23 05:25:44;;;;;;;;;;;3.90;89.70;;;;;;5092952;28;19987;-34
2023/01/23 05:28:10;;;;;;;;;;;3.90;89.60;;;;;;5092675;28;20264;-36
2023/01/23 05:30:35;;;;;;;;;;;3.90;89.60;;;;;;5092767;28;19920;-36
2023/01/23 05:33:00;;;;;;;;;;;3.80;89.50;;;;;;5092705;28;20451;-38
2023/01/23 05:35:26;;;;;;;;;;;3.80;89.60;;;;;;5092548;28;19916;-35
2023/01/23 05:37:52;;;;;;;;;;;3.80;89.80;;;;;;5092367;28;19969;-35
2023/01/23 05:40:18;;;;;;;;;;;3.90;89.80;;;;;;5092437;28;19970;-36
2023/01/23 05:42:44;;;;;;;;;;;3.90;89.80;;;;;;5092822;28;19936;-34
2023/01/23 05:45:10;;;;;;;;;;;3.90;89.80;;;;;;5092385;28;19958;-36
2023/01/23 05:47:36;;;;;;;;;;;3.90;89.70;;;;;;5092335;28;20251;-36
2023/01/23 05:50:02;;;;;;;;;;;3.90;89.70;;;;;;5092730;28;19918;-38
2023/01/23 05:52:27;;;;;;;;;;;3.90;89.80;;;;;;5092275;28;19912;-40
2023/01/23 05:54:53;;;;;;;;;;;3.90;89.80;;;;;;5092094;28;19912;-34
2023/01/23 05:57:18;;;;;;;;;;;3.90;89.80;;;;;;5092343;28;19916;-36
2023/01/23 05:59:44;;;;;;;;;;;3.90;89.70;;;;;;5092160;28;20371;-37
2023/01/23 06:02:09;;;;;;;;;;;3.90;89.70;;;;;;5092033;28;19913;-36
2023/01/23 06:04:35;;;;;;;;;;;3.90;89.70;;;;;;5092154;28;19938;-35
2023/01/23 06:07:00;;;;;;;;;;;3.80;89.70;;;;;;5092066;28;19935;-41
2023/01/23 06:09:26;;;;;;;;;;;3.80;89.80;;;;;;5092075;28;19916;-35
2023/01/23 06:11:51;;;;;;;;;;;3.80;89.90;;;;;;5091827;28;19961;-38
2023/01/23 06:14:17;;;;;;;;;;;3.80;89.90;;;;;;5092171;28;19912;-36
2023/01/23 06:16:42;;;;;;;;;;;3.80;89.90;;;;;;5091742;28;19927;-36
2023/01/23 06:19:08;;;;;;;;;;;3.80;90.00;;;;;;5091831;28;20003;-37
2023/01/23 06:21:34;;;;;;;;;;;3.80;90.00;;;;;;5092194;28;20334;-36
2023/01/23 06:24:00;;;;;;;;;;;3.90;90.00;;;;;;5091999;28;19955;-36
2023/01/23 06:26:25;;;;;;;;;;;4.00;90.00;;;;;;5092012;28;20399;-38
2023/01/23 06:28:51;;;;;;;;;;;4.00;89.90;;;;;;5091850;28;19908;-40
2023/01/23 06:31:16;;;;;;;;;;;4.00;89.90;;;;;;5092111;28;19919;-35
2023/01/23 06:33:42;;;;;;;;;;;4.00;89.90;;;;;;5091787;28;20359;-36
2023/01/23 06:36:07;;;;;;;;;;;4.10;89.90;;;;;;5092146;28;19947;-35
2023/01/23 06:38:33;;;;;;;;;;;4.10;89.80;;;;;;5090339;28;19916;-35
2023/01/23 06:40:59;;;;;;;;;;;4.10;89.70;;;;;;5091797;28;19912;-36
2023/01/23 06:43:25;;;;;;;;;;;4.10;89.70;;;;;;5090201;28;19913;-36
2023/01/23 06:45:50;;;;;;;;;;;4.10;89.60;;;;;;5091642;28;20295;-36
2023/01/23 06:48:16;;;;;;;;;;;4.10;89.70;;;;;;5091630;28;19916;-36
2023/01/23 06:50:42;;;;;;;;;;;4.10;89.70;;;;;;5091567;28;19941;-36
2023/01/23 06:53:08;;;;;;;;;;;4.10;89.70;;;;;;5091445;28;20006;-38
2023/01/23 06:55:34;;;;;;;;;;;4.10;89.70;;;;;;5091576;28;20303;-35
2023/01/23 06:57:59;;;;;;;;;;;4.10;89.70;;;;;;5091699;28;19916;-37
2023/01/23 07:00:26;;;;;;;;;;;4.10;89.60;;;;;;5091582;28;19923;-36
2023/01/23 07:02:51;;;;;;;;;;;4.10;89.70;;;;;;5091390;28;19973;-36
2023/01/23 07:05:18;;;;;;;;;;;4.10;89.60;;;;;;5091562;28;19912;-38
2023/01/23 07:07:43;;;;;;;;;;;4.10;89.70;;;;;;5094747;28;19912;-36
2023/01/23 07:10:09;;;;;;;;;;;4.10;89.80;;;;;;5095276;28;19912;-38
2023/01/23 07:12:34;;;;;;;;;;;4.10;89.80;;;;;;5095269;28;20372;-37
2023/01/23 07:15:00;;;;;;;;;;;4.10;89.70;;;;;;5095245;28;19916;-37
2023/01/23 07:17:26;;;;;;;;;;;4.10;89.70;;;;;;5095277;28;20375;-36
2023/01/23 07:19:51;;;;;;;;;;;4.20;89.70;;;;;;5095303;28;20292;-36
2023/01/23 07:22:18;;;;;;;;;;;4.10;89.70;;;;;;5095065;28;19930;-34
2023/01/23 07:24:43;;;;;;;;;;;4.10;89.70;;;;;;5095036;28;19912;-36
2023/01/23 07:27:09;;;;;;;;;;;4.20;89.80;;;;;;5094817;28;19912;-36
2023/01/23 07:29:34;;;;;;;;;;;4.10;89.60;;;;;;5095134;28;20384;-36
2023/01/23 07:32:00;;;;;;;;;;;4.10;89.60;;;;;;5093483;28;19969;-36
2023/01/23 07:34:25;;;;;;;;;;;4.10;89.60;;;;;;5094764;28;20272;-35
2023/01/23 07:36:51;;;;;;;;;;;4.20;89.70;;;;;;5094699;28;19915;-35
2023/01/23 07:39:17;;;;;;;;;;;4.10;89.70;;;;;;5094419;28;19928;-35
2023/01/23 07:41:42;;;;;;;;;;;4.10;89.70;;;;;;5094832;28;19912;-35
2023/01/23 07:44:13;;;;;;;;;;;4.10;89.70;;;;;;5093149;28;20379;-37
2023/01/23 07:46:38;;;;;;;;;;;4.10;89.70;;;;;;5094339;28;19912;-35
2023/01/23 07:49:04;;;;;;;;;;;4.10;89.70;;;;;;5094320;28;20431;-35
2023/01/23 07:51:29;;;;;;;;;;;4.20;89.80;;;;;;5094231;28;19919;-36
2023/01/23 07:53:55;;;;;;;;;;;4.10;89.70;;;;;;5094398;28;20014;-35
2023/01/23 07:56:21;;;;;;;;;;;4.10;89.70;;;;;;5094297;28;19951;-36
2023/01/23 07:58:48;;;;;;;;;;;4.10;89.80;;;;;;5092951;28;20275;-34
2023/01/23 08:01:13;;;;;;;;;;;4.10;89.70;;;;;;5094304;28;19912;-35
2023/01/23 08:03:39;;;;;;;;;;;4.20;89.90;;;;;;5094740;28;19912;-36
2023/01/23 08:06:05;;;;;;;;;;;4.20;89.80;;;;;;5094373;28;19978;-35
2023/01/23 08:08:30;;;;;;;;;;;4.20;89.80;;;;;;5092774;28;20325;-35
2023/01/23 08:10:56;;;;;;;;;;;4.20;89.70;;;;;;5094105;28;19923;-36
2023/01/23 08:13:21;;;;;;;;;;;4.20;89.60;;;;;;5094163;28;19912;-35
2023/01/23 08:15:47;;;;;;;;;;;4.20;89.70;;;;;;5093593;28;20235;-35
2023/01/23 08:18:12;;;;;;;;;;;4.10;89.70;;;;;;5094005;28;19916;-34
2023/01/23 08:20:38;;;;;;;;;;;4.10;89.70;;;;;;5093915;28;19913;-35
2023/01/23 08:23:03;;;;;;;;;;;4.20;89.70;;;;;;5094075;28;19920;-37
2023/01/23 08:25:29;;;;;;;;;;;4.20;89.70;;;;;;5094258;28;20256;-35
2023/01/23 08:27:54;;;;;;;;;;;4.20;89.70;;;;;;5093908;28;19912;-34
2023/01/23 08:30:20;;;;;;;;;;;4.20;89.70;;;;;;5093639;28;19912;-35
2023/01/23 08:32:46;;;;;;;;;;;4.30;89.70;;;;;;5092465;28;19923;-33
2023/01/23 08:35:11;;;;;;;;;;;4.30;89.80;;;;;;5093864;28;19912;-36
2023/01/23 08:37:37;;;;;;;;;;;4.40;89.80;;;;;;5093771;28;19927;-34
2023/01/23 08:40:03;;;;;;;;;;;4.40;89.60;;;;;;5093655;28;19919;-36
2023/01/23 08:42:29;;;;;;;;;;;4.50;89.60;;;;;;5093884;28;19912;-36
2023/01/23 08:44:54;;;;;;;;;;;4.50;89.40;;;;;;5093970;28;20395;-36
2023/01/23 08:47:20;;;;;;;;;;;4.50;89.50;;;;;;5093445;28;19916;-37
2023/01/23 08:49:45;;;;;;;;;;;4.60;89.40;;;;;;5093538;28;19916;-34
2023/01/23 08:52:11;;;;;;;;;;;4.60;89.40;;;;;;5093469;28;19912;-35
2023/01/23 08:54:36;;;;;;;;;;;4.60;89.30;;;;;;5093546;28;20003;-38
2023/01/23 08:57:02;;;;;;;;;;;4.60;89.30;;;;;;5093330;28;19916;-42
2023/01/23 08:59:27;;;;;;;;;;;4.60;89.30;;;;;;5093585;28;19913;-36
2023/01/23 09:01:53;;;;;;;;;;;4.70;89.20;;;;;;5093707;28;19923;-35
2023/01/23 09:04:18;;;;;;;;;;;4.70;89.20;;;;;;5093237;28;19919;-36
2023/01/23 09:06:44;;;;;;;;;;;4.70;89.20;;;;;;5093358;28;19913;-34
2023/01/23 09:09:09;;;;;;;;;;;4.70;89.20;;;;;;5093137;28;19919;-35
2023/01/23 09:11:35;;;;;;;;;;;4.80;89.20;;;;;;5093415;28;19966;-41
2023/01/23 09:14:00;;;;;;;;;;;4.80;89.00;;;;;;5092984;28;19916;-35
2023/01/23 09:16:26;;;;;;;;;;;4.80;89.00;;;;;;5092903;28;19924;-35
2023/01/23 09:18:53;;;;;;;;;;;4.80;89.00;;;;;;5092939;28;19919;-37
2023/01/23 09:21:18;;;;;;;;;;;4.80;89.00;;;;;;5092940;28;19912;-35
2023/01/23 09:23:44;;;;;;;;;;;4.80;89.00;;;;;;5092943;28;19919;-35
2023/01/23 09:26:10;;;;;;;;;;;4.90;88.90;;;;;;5093132;28;19916;-39
2023/01/23 09:28:37;;;;;;;;;;;4.90;88.90;;;;;;5092524;28;20022;-34
2023/01/23 09:31:06;;;;;;;;;;;4.90;89.00;;;;;;5092882;28;19912;-37
2023/01/23 09:33:32;;;;;;;;;;;5.00;88.90;;;;;;5092987;28;19912;-53
2023/01/23 09:35:57;;;;;;;;;;;5.00;88.90;;;;;;5092757;28;19912;-35
2023/01/23 09:38:23;;;;;;;;;;;5.00;88.70;;;;;;5092747;28;20364;-35
2023/01/23 09:40:50;;;;;;;;;;;5.00;88.50;;;;;;5092934;28;19919;-33
2023/01/23 09:43:21;;;;;;;;;;;5.00;88.50;;;;;;5092485;28;19919;-35
2023/01/23 09:45:52;;;;;;;;;;;4.90;88.50;;;;;;5092589;28;19912;-34
2023/01/23 09:48:21;;;;;;;;;;;4.90;88.40;;;;;;5092423;28;20311;-33
2023/01/23 09:50:55;;;;;;;;;;;4.90;88.60;;;;;;5092439;28;19923;-39
2023/01/23 09:53:23;;;;;;;;;;;5.00;88.80;;;;;;5092449;28;19912;-35
2023/01/23 09:55:57;;;;;;;;;;;5.00;88.60;;;;;;5091827;28;19912;-35
2023/01/23 09:58:33;;;;;;;;;;;5.10;88.60;;;;;;5092556;28;19922;-36
2023/01/23 10:00:59;;;;;;;;;;;5.10;88.60;;;;;;5092236;28;20007;-35
2023/01/23 10:03:27;;;;;;;;;;;5.20;88.60;;;;;;5092691;28;19947;-36
2023/01/23 10:06:17;;;;;;;;;;;5.30;88.60;;;;;;5092681;28;19912;-35
2023/01/23 10:08:45;;;;;;;;;;;5.20;88.30;;;;;;5092258;28;19912;-36
2023/01/23 10:11:14;;;;;;;;;;;5.30;88.00;;;;;;5092159;28;20318;-34
2023/01/23 10:13:47;;;;;;;;;;;5.30;88.20;;;;;;5092141;28;20351;-35
2023/01/23 10:16:31;;;;;;;;;;;5.30;88.40;;;;;;5090565;28;19987;-36
2023/01/23 10:19:03;;;;;;;;;;;5.30;88.40;;;;;;5092190;28;19923;-35
2023/01/23 10:21:40;;;;;;;;;;;5.40;88.40;;;;;;5092320;28;19922;-35
2023/01/23 10:24:12;;;;;;;;;;;5.50;88.90;;;;;;5092354;28;19916;-35
2023/01/23 10:26:40;;;;;;;;;;;5.50;88.20;;;;;;5092270;28;20307;-35
2023/01/23 10:29:24;;;;;;;;;;;5.60;88.20;;;;;;5092002;28;20449;-35
2023/01/23 10:31:55;;;;;;;;;;;5.60;88.10;;;;;;5091871;28;19912;-34
2023/01/23 10:34:25;;;;;;;;;;;5.70;88.00;;;;;;5091935;28;20409;-34
2023/01/23 10:37:01;;;;;;;;;;;5.70;88.10;;;;;;5092156;28;19923;-34
2023/01/23 10:39:31;;;;;;;;;;;5.70;87.90;;;;;;5092467;28;19998;-34
2023/01/23 10:41:57;;;;;;;;;;;5.70;87.80;;;;;;5094658;28;20476;-42
2023/01/23 10:44:22;;;;;;;;;;;5.80;87.90;;;;;;5096113;28;19969;-34
2023/01/23 10:46:49;;;;;;;;;;;5.80;87.70;;;;;;5096048;28;20342;-35
2023/01/23 10:49:31;;;;;;;;;;;5.80;87.70;;;;;;5096139;28;19912;-34
2023/01/23 10:51:56;;;;;;;;;;;5.80;87.80;;;;;;5095782;28;20292;-33
2023/01/23 10:54:24;;;;;;;;;;;5.80;87.70;;;;;;5095728;28;20015;-35
2023/01/23 10:56:57;;;;;;;;;;;5.80;87.70;;;;;;5095716;28;19916;-38
2023/01/23 10:59:34;;;;;;;;;;;5.90;87.80;;;;;;5095690;28;19912;-37
2023/01/23 11:02:11;;;;;;;;;;;5.80;87.50;;;;;;5095661;28;19951;-34
2023/01/23 11:04:38;;;;;;;;;;;5.90;87.50;;;;;;5095545;28;20338;-35
2023/01/23 11:07:10;;;;;;;;;;;5.90;87.50;;;;;;5095383;28;20363;-35
2023/01/23 11:09:52;;;;;;;;;;;5.90;87.60;;;;;;5095437;28;19921;-34
2023/01/23 11:12:19;;;;;;;;;;;5.90;87.50;;;;;;5095520;28;19965;-33
2023/01/23 11:14:45;;;;;;;;;;;6.00;87.50;;;;;;5095250;28;20029;-35
2023/01/23 11:17:16;;;;;;;;;;;6.00;87.50;;;;;;5095122;28;19995;-34
2023/01/23 11:19:42;;;;;;;;;;;6.00;87.50;;;;;;5095483;28;19970;-35
2023/01/23 11:22:43;;;;;;;;;;;6.10;87.40;;;;;;5095363;28;19919;-34
2023/01/23 11:25:29;;;;;;;;;;;6.20;87.30;;;;;;5032482;28;20407;-35
2023/01/23 11:27:59;;;;;;;;;;;6.20;87.30;;;;;;5090833;28;20007;-35
2023/01/23 11:30:54;;;;;;;;;;;6.20;87.30;;;;;;5095346;28;19912;-33
2023/01/23 11:33:25;;;;;;;;;;;6.30;87.30;;;;;;5081293;28;19918;-34
2023/01/23 11:35:53;;;;;;;;;;;6.30;86.70;;;;;;5094999;28;19962;-52
2023/01/23 11:38:23;;;;;;;;;;;6.20;86.90;;;;;;5095122;28;20327;-42
2023/01/23 11:40:48;;;;;;;;;;;6.20;87.00;;;;;;5094840;28;19924;-34
2023/01/23 11:43:14;;;;;;;;;;;6.20;87.10;;;;;;5094812;28;19919;-35
2023/01/23 11:45:40;;;;;;;;;;;6.20;87.10;;;;;;5094740;28;19995;-36
2023/01/23 11:48:16;;;;;;;;;;;6.20;87.10;;;;;;5094888;28;19935;-35
2023/01/23 11:50:47;;;;;;;;;;;6.20;87.10;;;;;;5094999;28;19912;-37
2023/01/23 11:53:33;;;;;;;;;;;6.20;86.50;;;;;;5094051;28;19955;-36
2023/01/23 11:56:07;;;;;;;;;;;6.20;86.80;;;;;;5094680;28;19922;-34
2023/01/23 11:58:45;;;;;;;;;;;6.20;86.70;;;;;;5094921;28;19923;-36
2023/01/23 12:01:13;;;;;;;;;;;6.10;86.90;;;;;;5095097;28;19912;-35
2023/01/23 12:03:51;;;;;;;;;;;6.20;87.00;;;;;;5093764;28;19916;-35
2023/01/23 12:06:26;;;;;;;;;;;6.20;87.00;;;;;;5094804;28;19999;-35
2023/01/23 12:09:06;;;;;;;;;;;6.20;87.00;;;;;;5094648;28;20006;-40
2023/01/23 12:11:38;;;;;;;;;;;6.20;86.90;;;;;;5094682;28;19912;-35
2023/01/23 12:14:04;;;;;;;;;;;6.20;86.90;;;;;;5094391;28;20367;-35
2023/01/23 12:16:37;;;;;;;;;;;6.20;86.90;;;;;;5093886;28;20014;-34
2023/01/23 12:19:20;;;;;;;;;;;6.20;86.90;;;;;;5094217;28;19919;-35
2023/01/23 12:21:58;;;;;;;;;;;6.30;87.00;;;;;;5094286;28;19943;-36
2023/01/23 12:24:39;;;;;;;;;;;6.30;86.60;;;;;;5094358;28;19916;-37
2023/01/23 12:27:23;;;;;;;;;;;6.30;86.60;;;;;;5094157;28;20372;-36
2023/01/23 12:30:03;;;;;;;;;;;6.30;86.70;;;;;;5094343;28;19912;-35
2023/01/23 12:32:35;;;;;;;;;;;6.40;86.50;;;;;;5094195;28;20006;-36
2023/01/23 12:35:00;;;;;;;;;;;6.40;85.30;;;;;;5094121;28;19912;-35
2023/01/23 12:37:43;;;;;;;;;;;6.30;86.00;;;;;;5093961;28;19920;-36
2023/01/23 12:40:23;;;;;;;;;;;6.40;86.20;;;;;;5093950;28;19951;-36
2023/01/23 12:42:58;;;;;;;;;;;6.40;86.20;;;;;;5093780;28;19923;-34
2023/01/23 12:45:24;;;;;;;;;;;6.40;86.20;;;;;;5093819;28;19912;-38
2023/01/23 12:48:05;;;;;;;;;;;6.50;86.30;;;;;;5094138;28;19919;-35
2023/01/23 12:50:34;;;;;;;;;;;6.40;86.00;;;;;;5094044;28;20244;-35
2023/01/23 12:53:04;;;;;;;;;;;6.40;85.20;;;;;;5093667;28;20037;-36
2023/01/23 12:55:51;;;;;;;;;;;6.40;85.00;;;;;;5093923;28;19922;-35
2023/01/23 12:58:17;;;;;;;;;;;6.40;85.50;;;;;;5093607;28;19923;-35
2023/01/23 13:01:01;;;;;;;;;;;6.40;85.70;;;;;;5093850;28;19912;-36
2023/01/23 13:03:45;;;;;;;;;;;6.40;85.80;;;;;;5092672;28;19912;-35
2023/01/23 13:06:20;;;;;;;;;;;6.40;85.60;;;;;;5093418;28;20002;-36
2023/01/23 13:08:52;;;;;;;;;;;6.40;85.80;;;;;;5093568;28;20397;-34
2023/01/23 13:14:24;;;;;;;;;;;6.50;85.70;;;;;;5093262;28;20385;-36
2023/01/23 13:16:51;;;;;;;;;;;6.60;85.70;;;;;;5092969;28;20002;-34
2023/01/23 13:22:24;;;;;;;;;;;6.70;85.20;;;;;;5093046;28;19919;-40
2023/01/23 13:25:11;;;;;;;;;;;6.70;84.70;;;;;;5092903;28;19934;-41
2023/01/23 13:27:44;;;;;;;;;;;6.60;85.00;;;;;;5093333;28;19919;-36
2023/01/23 13:30:25;;;;;;;;;;;6.50;85.10;;;;;;5092652;28;19912;-35
2023/01/23 13:32:51;;;;;;;;;;;6.50;85.30;;;;;;5092975;28;19912;-39
2023/01/23 13:35:35;;;;;;;;;;;6.50;85.40;;;;;;5092831;28;19985;-34
2023/01/23 13:38:01;;;;;;;;;;;6.50;85.40;;;;;;5092750;28;20291;-44
2023/01/23 13:40:26;;;;;;;;;;;6.50;85.40;;;;;;5092698;28;19939;-34
2023/01/23 13:42:52;;;;;;;;;;;6.50;85.50;;;;;;5092847;28;19919;-34
2023/01/23 13:45:26;;;;;;;;;;;6.50;85.50;;;;;;5091480;28;20006;-34
2023/01/23 13:51:18;;;;;;;;;;;6.40;85.40;;;;;;5092842;28;19923;-35
2023/01/23 13:56:38;;;;;;;;;;;6.40;85.80;;;;;;5092705;28;20250;-38
2023/01/23 13:59:22;;;;;;;;;;;6.30;85.70;;;;;;5092557;28;19916;-39
2023/01/23 14:07:41;;;;;;;;;;;6.30;85.80;;;;;;5092298;28;19919;-36
2023/01/23 14:10:18;;;;;;;;;;;6.30;85.80;;;;;;5092213;28;19965;-33
2023/01/23 14:12:44;;;;;;;;;;;6.30;85.90;;;;;;5092251;28;19908;-35
2023/01/23 14:18:12;;;;;;;;;;;6.30;85.50;;;;;;5092055;28;20007;-47
2023/01/23 14:20:38;;;;;;;;;;;6.20;85.60;;;;;;5092100;28;19931;-34
2023/01/23 14:23:14;;;;;;;;;;;6.20;85.50;;;;;;5092371;28;20000;-36
2023/01/23 14:25:40;;;;;;;;;;;6.20;85.30;;;;;;5092202;28;19909;-39
2023/01/23 14:28:06;;;;;;;;;;;6.20;85.40;;;;;;5092075;28;19967;-38
2023/01/23 14:30:31;;;;;;;;;;;6.20;85.50;;;;;;5092188;28;19940;-35
2023/01/23 14:32:59;;;;;;;;;;;6.30;85.30;;;;;;5091973;28;20007;-50
2023/01/23 14:35:25;;;;;;;;;;;6.30;85.10;;;;;;5092306;28;19990;-39
2023/01/23 14:37:52;;;;;;;;;;;6.40;84.70;;;;;;5092086;28;19999;-40
2023/01/23 14:40:19;;;;;;;;;;;6.40;84.40;;;;;;5091661;28;19954;-35
2023/01/23 14:42:49;;;;;;;;;;;6.50;84.20;;;;;;5092313;28;19911;-35
2023/01/23 14:45:15;;;;;;;;;;;6.50;84.40;;;;;;5092025;28;19947;-35
2023/01/23 14:47:44;;;;;;;;;;;6.50;84.20;;;;;;5091740;28;20398;-36
2023/01/23 14:50:14;;;;;;;;;;;6.50;84.20;;;;;;5091920;28;19908;-34
2023/01/23 14:52:40;;;;;;;;;;;6.50;84.30;;;;;;5091834;28;19999;-34
2023/01/23 14:55:19;;;;;;;;;;;6.50;84.30;;;;;;5091920;28;19955;-36
2023/01/23 14:57:44;;;;;;;;;;;6.50;84.40;;;;;;5091280;28;20008;-34
2023/01/23 15:00:15;;;;;;;;;;;6.40;84.40;;;;;;5091834;28;19908;-36
2023/01/23 15:02:41;;;;;;;;;;;6.40;84.60;;;;;;5092029;28;20406;-35
2023/01/23 15:05:19;;;;;;;;;;;6.30;84.80;;;;;;5091989;28;20324;-36